Time;durP1;ratioP1;P1;durP2;ratioP2;P2;SDS_P1;SDS_P2;PMS_P1;PMS_P2;Temp;Humidity;BMP_temperature;BMP_pressure;BME280_temperature;BME280_humidity;BME280_pressure;Samples;Min_cycle;Max_cycle;Signal;HPM_P1;HPM_P2
2021/10/17 00:01:44;;;;;;;32.75;17.48;;;11.30;99.90;;;;;;5009475;28;20060;-83
2021/10/17 00:04:13;;;;;;;27.33;15.25;;;10.40;99.90;;;;;;5013203;28;20073;-85
2021/10/17 00:06:55;;;;;;;37.47;18.27;;;11.40;99.90;;;;;;5027736;28;20046;-85
2021/10/17 00:09:55;;;;;;;35.25;17.73;;;11.10;99.90;;;;;;5029405;28;20755;-90
2021/10/17 00:12:33;;;;;;;37.00;18.17;;;10.80;99.90;;;;;;4995568;28;20061;-85
2021/10/17 00:15:18;;;;;;;34.78;18.60;;;11.30;99.90;;;;;;5009793;28;20065;-85
2021/10/17 00:17:48;;;;;;;36.28;17.40;;;11.30;99.90;;;;;;5031002;28;20046;-88
2021/10/17 00:20:24;;;;;;;37.08;18.67;;;11.30;99.90;;;;;;5024560;28;20046;-93
2021/10/17 00:23:00;;;;;;;35.28;16.45;;;11.30;99.90;;;;;;5009352;28;20054;-92
2021/10/17 00:25:42;;;;;;;35.08;19.70;;;11.30;99.90;;;;;;5025786;28;20053;-86
2021/10/17 00:28:11;;;;;;;35.45;16.50;;;11.30;99.90;;;;;;4992401;28;20046;-84
2021/10/17 00:30:46;;;;;;;38.45;18.90;;;11.30;99.90;;;;;;5010843;28;20076;-85
2021/10/17 00:33:32;;;;;;;43.30;20.67;;;11.30;99.90;;;;;;5023758;28;20056;-85
2021/10/17 00:36:07;;;;;;;32.08;16.75;;;11.20;99.90;;;;;;5017917;28;20053;-85
2021/10/17 00:38:51;;;;;;;34.58;17.27;;;11.20;99.90;;;;;;5007063;28;20481;-84
2021/10/17 00:41:51;;;;;;;31.50;17.17;;;11.20;99.90;;;;;;5007571;28;20052;-84
2021/10/17 00:44:28;;;;;;;33.15;18.25;;;11.20;99.90;;;;;;4988917;28;20068;-87
2021/10/17 00:46:57;;;;;;;38.95;19.45;;;11.20;99.90;;;;;;5003819;28;20604;-90
2021/10/17 00:50:03;;;;;;;34.42;20.08;;;11.20;99.90;;;;;;5005811;28;20061;-91
2021/10/17 00:52:47;;;;;;;42.50;18.58;;;11.20;99.90;;;;;;5022528;28;20465;-85
2021/10/17 00:55:20;;;;;;;36.65;18.83;;;11.20;99.90;;;;;;5023343;28;20046;-83
2021/10/17 00:58:00;;;;;;;38.97;19.40;;;11.20;99.90;;;;;;4997457;28;20560;-86
2021/10/17 01:00:31;;;;;;;33.40;19.05;;;11.20;99.90;;;;;;5035793;28;20519;-84
2021/10/17 01:03:06;;;;;;;33.90;18.90;;;11.20;99.90;;;;;;5020734;28;20500;-86
2021/10/17 01:05:40;;;;;;;37.63;17.48;;;11.20;99.90;;;;;;5010221;28;20046;-87
2021/10/17 01:08:25;;;;;;;41.00;18.75;;;11.20;99.90;;;;;;5035310;28;20058;-85
2021/10/17 01:11:00;;;;;;;40.92;17.75;;;11.20;99.90;;;;;;5026710;28;20045;-83
2021/10/17 01:13:38;;;;;;;33.17;16.83;;;11.20;99.90;;;;;;5006988;28;20413;-82
2021/10/17 01:16:18;;;;;;;;;;;11.30;99.90;;;;;;5010730;28;20038;-82
2021/10/17 01:18:55;;;;;;;33.67;15.15;;;11.40;99.90;;;;;;4996466;28;19921;-84
2021/10/17 01:21:36;;;;;;;31.27;16.10;;;11.40;99.90;;;;;;5018133;28;20050;-83
2021/10/17 01:24:14;;;;;;;30.63;17.40;;;11.40;99.90;;;;;;5006004;28;20053;-84
2021/10/17 01:26:46;;;;;;;31.65;17.55;;;11.40;99.90;;;;;;5021534;28;20046;-83
2021/10/17 01:29:21;;;;;;;33.88;17.05;;;11.40;99.90;;;;;;5022049;28;20057;-84
2021/10/17 01:31:56;;;;;;;35.58;17.02;;;12.30;99.90;;;;;;4990378;28;20056;-85
2021/10/17 01:34:28;;;;;;;35.28;16.63;;;11.40;99.90;;;;;;4988770;28;20061;-84
2021/10/17 01:37:04;;;;;;;42.03;17.48;;;11.50;99.90;;;;;;5004515;28;20046;-90
2021/10/17 01:39:46;;;;;;;39.33;19.15;;;11.50;99.90;;;;;;4996677;28;20052;-84
2021/10/17 01:42:15;;;;;;;29.05;16.52;;;11.50;99.90;;;;;;5015837;28;20065;-86
2021/10/17 01:44:54;;;;;;;29.48;14.82;;;11.60;99.90;;;;;;5007685;28;20050;-87
2021/10/17 01:47:26;;;;;;;32.00;15.73;;;11.60;99.90;;;;;;4992431;28;20715;-84
2021/10/17 01:49:57;;;;;;;30.65;15.68;;;11.60;99.90;;;;;;5026063;28;20690;-83
2021/10/17 01:52:35;;;;;;;28.52;15.35;;;11.70;99.90;;;;;;5009021;28;20056;-84
2021/10/17 01:55:14;;;;;;;30.17;16.38;;;11.70;99.90;;;;;;5011292;28;20045;-83
2021/10/17 01:57:56;;;;;;;;;;;11.70;99.90;;;;;;4983384;28;20058;-83
2021/10/17 02:00:30;;;;;;;24.40;13.30;;;11.70;99.90;;;;;;5017007;28;19928;-83
2021/10/17 02:03:05;;;;;;;27.60;15.23;;;11.60;99.90;;;;;;5007291;28;20588;-84
2021/10/17 02:05:41;;;;;;;27.33;13.52;;;11.60;99.90;;;;;;4993380;28;20050;-86
2021/10/17 02:08:22;;;;;;;30.92;16.02;;;11.50;99.90;;;;;;5022871;28;20503;-84
2021/10/17 02:10:55;;;;;;;27.55;15.30;;;11.50;99.90;;;;;;5028451;28;20505;-86
2021/10/17 02:13:34;;;;;;;32.80;15.77;;;11.50;99.90;;;;;;5013600;28;20058;-84
2021/10/17 02:16:16;;;;;;;31.27;15.75;;;11.40;99.90;;;;;;5028223;28;20054;-88
2021/10/17 02:18:50;;;;;;;36.25;16.77;;;11.40;99.90;;;;;;4987771;28;20068;-83
2021/10/17 02:21:37;;;;;;;33.00;15.75;;;11.30;99.90;;;;;;4997581;28;20052;-86
2021/10/17 02:24:15;;;;;;;33.13;16.08;;;11.30;99.90;;;;;;5011863;28;20058;-85
2021/10/17 02:26:49;;;;;;;29.10;14.60;;;11.30;99.90;;;;;;5042178;28;20029;-84
2021/10/17 02:29:42;;;;;;;30.08;16.15;;;11.30;99.90;;;;;;5006957;28;20034;-85
2021/10/17 02:32:38;;;;;;;28.77;15.50;;;11.30;99.90;;;;;;5025454;28;20050;-84
2021/10/17 02:35:17;;;;;;;26.75;14.32;;;11.60;99.90;;;;;;5015904;28;20040;-84
2021/10/17 02:37:52;;;;;;;36.83;14.65;;;10.90;99.90;;;;;;5026530;28;20037;-83
2021/10/17 02:40:23;;;;;;;30.38;15.25;;;11.30;99.90;;;;;;4976550;28;20053;-84
2021/10/17 02:43:25;;;;;;;31.73;17.15;;;11.30;99.90;;;;;;5019929;28;20659;-84
2021/10/17 02:46:11;;;;;;;35.38;16.38;;;11.30;99.90;;;;;;5040978;28;20509;-84
2021/10/17 02:48:43;;;;;;;37.00;17.38;;;11.30;99.90;;;;;;5023906;28;20033;-84
2021/10/17 02:51:12;;;;;;;30.23;15.82;;;11.30;99.90;;;;;;5007948;28;20050;-83
2021/10/17 02:53:49;;;;;;;29.00;14.88;;;11.40;99.90;;;;;;5010227;28;20470;-83
2021/10/17 02:56:40;;;;;;;;;;;;;;;;;;;;;
2021/10/17 02:59:16;;;;;;;31.88;16.63;;;11.50;99.90;;;;;;4995682;28;20125;-84
2021/10/17 03:01:50;;;;;;;33.40;18.83;;;11.50;99.90;;;;;;5011192;22;20568;-84
2021/10/17 03:04:23;;;;;;;;;;;11.50;99.90;;;;;;5000932;28;20065;-85
2021/10/17 03:07:10;;;;;;;29.83;14.65;;;11.60;99.90;;;;;;5010162;28;20377;-85
2021/10/17 03:10:00;;;;;;;31.42;16.83;;;11.70;99.90;;;;;;5020892;28;20057;-85
2021/10/17 03:12:38;;;;;;;36.70;17.52;;;11.60;99.90;;;;;;5005031;28;20062;-84
2021/10/17 03:15:20;;;;;;;38.10;16.30;;;11.70;99.90;;;;;;4980804;28;20070;-84
2021/10/17 03:17:54;;;;;;;36.55;16.27;;;12.00;99.90;;;;;;4992644;28;20049;-84
2021/10/17 03:20:30;;;;;;;33.58;16.25;;;11.70;99.90;;;;;;4988496;28;20058;-84
2021/10/17 03:23:26;;;;;;;38.40;16.63;;;11.80;99.90;;;;;;4982300;28;20054;-84
2021/10/17 03:26:07;;;;;;;29.60;16.08;;;11.80;99.90;;;;;;5008816;28;20041;-84
2021/10/17 03:28:41;;;;;;;27.70;14.07;;;11.80;99.90;;;;;;5001943;28;20075;-84
2021/10/17 03:31:37;;;;;;;31.42;15.13;;;11.80;99.90;;;;;;4999576;28;20054;-85
2021/10/17 03:34:12;;;;;;;30.20;15.38;;;11.80;99.90;;;;;;4953610;28;20046;-84
2021/10/17 03:36:41;;;;;;;30.02;15.15;;;11.80;99.90;;;;;;4997640;28;20061;-83
2021/10/17 03:39:17;;;;;;;29.80;16.80;;;11.80;99.90;;;;;;5001797;28;20054;-86
2021/10/17 03:41:51;;;;;;;34.72;18.25;;;11.80;99.90;;;;;;5000981;28;20368;-84
2021/10/17 03:44:27;;;;;;;32.85;17.70;;;11.80;99.90;;;;;;4999962;28;20045;-85
2021/10/17 03:47:06;;;;;;;31.35;17.75;;;11.70;99.90;;;;;;5000599;28;20360;-86
2021/10/17 03:49:46;;;;;;;32.97;15.90;;;11.70;99.90;;;;;;4997593;28;20062;-86
2021/10/17 03:52:33;;;;;;;27.70;17.45;;;11.70;99.90;;;;;;5017071;28;20048;-85
2021/10/17 03:55:05;;;;;;;33.13;17.02;;;11.70;99.90;;;;;;4996723;28;20058;-85
2021/10/17 03:57:36;;;;;;;31.92;17.75;;;11.70;99.90;;;;;;5010582;28;20118;-83
2021/10/17 04:00:15;;;;;;;33.78;17.50;;;11.70;99.90;;;;;;4999337;28;20061;-84
2021/10/17 04:02:59;;;;;;;27.85;15.73;;;11.70;99.90;;;;;;4986416;28;20058;-84
2021/10/17 04:05:40;;;;;;;37.25;18.02;;;11.70;99.90;;;;;;4996458;28;20057;-84
2021/10/17 04:08:12;;;;;;;33.38;18.25;;;11.70;99.90;;;;;;5008033;28;20065;-84
2021/10/17 04:10:50;;;;;;;30.58;18.67;;;11.70;99.90;;;;;;4985143;28;20045;-84
2021/10/17 04:13:21;;;;;;;34.38;17.85;;;11.70;99.90;;;;;;4999068;28;20058;-84
2021/10/17 04:15:52;;;;;;;32.90;16.98;;;11.70;99.90;;;;;;5000869;28;20057;-87
2021/10/17 04:18:24;;;;;;;39.70;18.25;;;11.70;99.90;;;;;;5000937;28;20042;-85
2021/10/17 04:20:59;;;;;;;33.35;17.33;;;11.70;99.90;;;;;;4998537;28;20108;-84
2021/10/17 04:23:33;;;;;;;30.30;16.10;;;11.80;99.90;;;;;;4989105;28;20065;-86
2021/10/17 04:26:11;;;;;;;33.47;17.55;;;11.80;99.90;;;;;;4992830;28;20046;-84
2021/10/17 04:29:15;;;;;;;32.35;14.88;;;11.80;99.90;;;;;;4989739;28;20073;-86
2021/10/17 04:31:52;;;;;;;30.13;16.50;;;11.80;99.90;;;;;;4995008;28;20061;-84
2021/10/17 04:35:02;;;;;;;29.08;16.27;;;11.80;99.90;;;;;;4996771;28;20053;-85
2021/10/17 04:37:53;;;;;;;29.52;16.65;;;11.80;99.90;;;;;;5009681;28;20037;-84
2021/10/17 04:40:43;;;;;;;30.33;17.08;;;11.80;99.90;;;;;;4991068;28;20023;-84
2021/10/17 04:43:15;;;;;;;38.38;18.23;;;11.80;99.90;;;;;;5002951;28;20050;-85
2021/10/17 04:45:45;;;;;;;32.03;16.27;;;11.80;99.90;;;;;;5000336;28;20046;-83
2021/10/17 04:48:14;;;;;;;32.78;16.92;;;11.80;99.90;;;;;;4995820;28;20058;-84
2021/10/17 04:50:49;;;;;;;29.20;16.33;;;11.70;99.90;;;;;;4996135;28;20046;-84
2021/10/17 04:53:19;;;;;;;26.77;15.20;;;11.70;99.90;;;;;;4996785;28;20059;-85
2021/10/17 04:55:51;;;;;;;29.90;17.07;;;11.70;99.90;;;;;;4983059;28;20061;-86
2021/10/17 04:58:29;;;;;;;32.78;16.48;;;11.70;99.90;;;;;;4992990;28;20057;-85
2021/10/17 05:01:28;;;;;;;;;;;;;;;;;;;;;
2021/10/17 05:03:59;;;;;;;24.25;13.63;;;11.60;99.90;;;;;;5015518;28;20045;-85
2021/10/17 05:06:37;;;;;;;31.73;15.52;;;11.60;99.90;;;;;;4981774;28;20052;-84
2021/10/17 05:09:19;;;;;;;26.30;14.57;;;11.60;99.90;;;;;;5015219;28;20046;-84
2021/10/17 05:11:53;;;;;;;34.28;16.02;;;11.60;99.90;;;;;;4984314;28;20049;-85
2021/10/17 05:14:24;;;;;;;27.02;15.02;;;11.60;99.90;;;;;;4987767;28;20050;-84
2021/10/17 05:17:00;;;;;;;27.58;14.50;;;11.60;99.90;;;;;;4982406;28;20050;-84
2021/10/17 05:22:38;;;;;;;38.88;16.50;;;11.60;99.90;;;;;;5003043;28;20042;-85
2021/10/17 05:25:21;;;;;;;31.13;17.65;;;11.60;99.90;;;;;;4982483;28;20061;-84
2021/10/17 05:27:57;;;;;;;28.38;15.77;;;11.60;99.90;;;;;;5023068;28;20052;-87
2021/10/17 05:30:36;;;;;;;36.72;16.38;;;11.70;99.90;;;;;;5001139;28;20045;-86
2021/10/17 05:33:07;;;;;;;;;;;11.70;99.90;;;;;;5019604;28;20374;-85
2021/10/17 05:35:41;;;;;;;25.77;13.77;;;11.80;99.90;;;;;;5001084;28;20645;-84
2021/10/17 05:38:19;;;;;;;34.97;15.70;;;11.70;99.90;;;;;;5010432;28;20053;-84
2021/10/17 05:40:54;;;;;;;37.00;14.60;;;11.70;99.90;;;;;;5014253;28;20053;-85
2021/10/17 05:43:28;;;;;;;29.60;14.25;;;11.70;99.90;;;;;;4984185;28;20430;-84
2021/10/17 05:45:59;;;;;;;24.15;13.10;;;11.70;99.90;;;;;;5017800;28;20046;-84
2021/10/17 05:48:28;;;;;;;34.53;13.95;;;11.70;99.90;;;;;;5016581;23;20054;-85
2021/10/17 05:51:04;;;;;;;24.35;12.60;;;11.80;99.90;;;;;;4999717;28;20425;-85
2021/10/17 05:53:38;;;;;;;33.35;15.40;;;11.80;99.90;;;;;;5006199;28;20053;-84
2021/10/17 05:56:09;;;;;;;27.27;12.55;;;11.80;99.90;;;;;;4990675;28;20046;-85
2021/10/17 05:58:47;;;;;;;25.27;12.73;;;11.80;99.90;;;;;;5012663;28;20069;-85
2021/10/17 06:01:19;;;;;;;29.08;14.27;;;11.80;99.90;;;;;;5013350;28;20041;-85
2021/10/17 06:04:24;;;;;;;27.85;13.05;;;11.80;99.90;;;;;;5002971;28;20566;-89
2021/10/17 06:06:58;;;;;;;29.15;12.30;;;11.80;99.90;;;;;;5009762;28;20042;-86
2021/10/17 06:09:40;;;;;;;29.40;11.80;;;11.80;99.90;;;;;;4987848;28;20050;-85
2021/10/17 06:12:18;;;;;;;36.72;13.35;;;11.80;99.90;;;;;;4980879;28;20053;-90
2021/10/17 06:14:50;;;;;;;26.48;13.68;;;11.80;99.90;;;;;;4973137;28;20066;-85
2021/10/17 06:17:27;;;;;;;24.55;12.45;;;11.80;99.90;;;;;;4991528;28;20043;-86
2021/10/17 06:20:00;;;;;;;24.75;13.13;;;11.80;99.90;;;;;;4995228;28;20051;-85
2021/10/17 06:22:31;;;;;;;26.48;11.32;;;11.80;99.90;;;;;;4995287;28;20053;-84
2021/10/17 06:25:08;;;;;;;24.73;13.32;;;11.80;99.90;;;;;;4999132;28;20038;-86
2021/10/17 06:27:41;;;;;;;30.30;13.38;;;11.80;99.90;;;;;;4995536;28;20505;-85
2021/10/17 06:30:13;;;;;;;22.25;12.30;;;11.70;99.90;;;;;;4978599;28;20042;-84
2021/10/17 06:32:50;;;;;;;23.77;12.50;;;11.70;99.90;;;;;;4982260;28;20053;-85
2021/10/17 06:35:24;;;;;;;28.02;12.68;;;11.70;99.90;;;;;;5009251;28;20062;-85
2021/10/17 06:37:54;;;;;;;22.08;13.02;;;11.70;99.90;;;;;;4979535;28;20043;-85
2021/10/17 06:40:26;;;;;;;23.25;12.50;;;12.10;99.90;;;;;;4972880;28;20257;-87
2021/10/17 06:42:57;;;;;;;28.90;12.35;;;11.60;99.90;;;;;;4988986;28;20046;-87
2021/10/17 06:45:56;;;;;;;26.13;12.10;;;11.70;99.90;;;;;;4996248;28;20760;-85
2021/10/17 06:48:36;;;;;;;22.50;12.63;;;11.70;99.90;;;;;;4979892;28;20051;-84
2021/10/17 06:51:09;;;;;;;31.35;14.32;;;11.70;99.90;;;;;;4976441;28;20046;-85
2021/10/17 06:53:37;;;;;;;;;;;11.70;99.90;;;;;;4997976;28;20057;-84
2021/10/17 06:56:07;;;;;;;24.83;12.02;;;11.60;99.90;;;;;;4995317;28;19957;-85
2021/10/17 06:58:40;;;;;;;27.88;12.73;;;11.70;99.90;;;;;;4995461;28;20486;-85
2021/10/17 07:01:13;;;;;;;20.95;10.93;;;11.70;99.90;;;;;;4995401;28;20047;-84
2021/10/17 07:03:46;;;;;;;20.55;11.07;;;11.80;99.90;;;;;;4997737;28;20053;-83
2021/10/17 07:06:22;;;;;;;19.95;11.43;;;11.80;99.90;;;;;;4999204;28;20035;-84
2021/10/17 07:09:09;;;;;;;22.65;10.13;;;11.80;99.90;;;;;;4967736;28;20054;-84
2021/10/17 07:11:46;;;;;;;26.63;11.23;;;11.90;99.90;;;;;;4981500;28;20047;-86
2021/10/17 07:14:25;;;;;;;18.77;10.55;;;12.00;99.90;;;;;;4977021;28;20122;-85
2021/10/17 07:17:11;;;;;;;20.75;10.13;;;12.00;99.90;;;;;;4971732;28;20043;-85
2021/10/17 07:19:42;;;;;;;17.33;8.88;;;11.90;99.90;;;;;;4987548;28;20057;-84
2021/10/17 07:22:14;;;;;;;24.13;11.57;;;12.10;99.90;;;;;;4998746;28;20054;-85
2021/10/17 07:24:54;;;;;;;17.80;9.63;;;12.20;99.90;;;;;;5003966;28;20054;-85
2021/10/17 07:27:26;;;;;;;24.27;10.98;;;12.20;99.90;;;;;;4977770;28;20054;-87
2021/10/17 07:29:58;;;;;;;23.77;10.40;;;12.60;99.90;;;;;;4646726;28;10001360;-85
2021/10/17 07:32:28;;;;;;;22.02;10.15;;;12.30;99.90;;;;;;4995981;28;20050;-84
2021/10/17 07:35:00;;;;;;;18.88;7.70;;;12.10;99.90;;;;;;4978665;28;20050;-85
2021/10/17 07:37:36;;;;;;;19.25;8.00;;;12.40;99.90;;;;;;4996597;28;20042;-85
2021/10/17 07:40:14;;;;;;;18.92;8.73;;;12.40;99.90;;;;;;4991784;28;20062;-85
2021/10/17 07:42:48;;;;;;;17.45;8.85;;;12.50;99.90;;;;;;4996581;28;20482;-85
2021/10/17 07:45:26;;;;;;;16.50;8.27;;;12.50;99.90;;;;;;5005225;22;20050;-85
2021/10/17 07:47:57;;;;;;;20.20;9.25;;;12.60;99.90;;;;;;5013222;28;20418;-84
2021/10/17 07:50:31;;;;;;;17.08;8.82;;;12.70;99.90;;;;;;5002662;28;20034;-85
2021/10/17 07:53:04;;;;;;;19.02;7.63;;;12.70;99.90;;;;;;5013511;28;20086;-86
2021/10/17 07:55:38;;;;;;;18.02;7.03;;;12.80;99.90;;;;;;5027717;28;20049;-84
2021/10/17 07:58:20;;;;;;;14.93;7.53;;;12.80;99.90;;;;;;5014407;28;20410;-84
2021/10/17 08:01:02;;;;;;;13.57;6.95;;;12.90;99.90;;;;;;5005267;28;20049;-85
2021/10/17 08:03:38;;;;;;;;;;;13.00;99.90;;;;;;4998060;28;20053;-87
2021/10/17 08:06:29;;;;;;;17.67;7.60;;;13.10;99.90;;;;;;5013789;28;19937;-85
2021/10/17 08:09:02;;;;;;;15.32;7.10;;;13.10;99.90;;;;;;4993268;28;20079;-87
2021/10/17 08:11:38;;;;;;;16.38;7.25;;;13.20;99.90;;;;;;4994791;28;20046;-85
2021/10/17 08:14:06;;;;;;;14.27;6.55;;;13.20;99.90;;;;;;5007095;28;20065;-85
2021/10/17 08:16:54;;;;;;;12.93;5.97;;;13.30;99.90;;;;;;4992989;28;20061;-84
2021/10/17 08:19:35;;;;;;;12.00;6.45;;;13.40;99.90;;;;;;4986626;28;20043;-85
2021/10/17 08:22:16;;;;;;;14.75;5.65;;;13.40;99.90;;;;;;5004055;28;20050;-84
2021/10/17 08:24:52;;;;;;;10.20;5.72;;;13.50;99.90;;;;;;4992202;28;20054;-85
2021/10/17 08:27:25;;;;;;;14.05;7.00;;;13.50;99.90;;;;;;4990949;28;20050;-86
2021/10/17 08:29:54;;;;;;;13.13;6.30;;;13.60;99.90;;;;;;4999282;28;20053;-85
2021/10/17 08:32:26;;;;;;;14.38;7.70;;;13.60;99.90;;;;;;4966116;28;20051;-85
2021/10/17 08:34:57;;;;;;;15.43;6.07;;;13.60;99.90;;;;;;4973008;28;20051;-87
2021/10/17 08:37:27;;;;;;;16.77;6.15;;;13.70;99.90;;;;;;4970863;28;20558;-89
2021/10/17 08:40:13;;;;;;;17.25;6.28;;;13.70;99.90;;;;;;4979051;28;20046;-85
2021/10/17 08:43:17;;;;;;;12.98;7.22;;;13.70;99.90;;;;;;4997733;28;20062;-85
2021/10/17 08:46:02;;;;;;;17.95;6.82;;;13.70;99.90;;;;;;5005673;28;20057;-86
2021/10/17 08:48:57;;;;;;;10.45;5.38;;;13.60;99.90;;;;;;4998508;28;20057;-87
2021/10/17 08:51:31;;;;;;;12.02;5.28;;;13.50;99.90;;;;;;4979056;28;20050;-84
2021/10/17 08:54:09;;;;;;;26.75;8.55;;;13.80;99.90;;;;;;5008565;28;20142;-87
2021/10/17 08:57:00;;;;;;;12.48;6.55;;;12.50;99.90;;;;;;5006974;28;20054;-86
2021/10/17 08:59:34;;;;;;;13.73;6.43;;;14.10;99.90;;;;;;5003122;28;20057;-85
2021/10/17 09:02:13;;;;;;;19.65;6.15;;;13.90;99.90;;;;;;5000301;28;20049;-82
2021/10/17 09:05:05;;;;;;;14.35;5.85;;;13.90;99.90;;;;;;5020583;28;20045;-85
2021/10/17 09:07:57;;;;;;;15.00;7.18;;;13.90;99.90;;;;;;4996389;28;20042;-85
2021/10/17 09:10:50;;;;;;;11.18;5.00;;;13.90;99.90;;;;;;4985842;28;20051;-86
2021/10/17 09:13:34;;;;;;;11.38;4.20;;;14.10;99.90;;;;;;4994160;28;20050;-86
2021/10/17 09:16:24;;;;;;;12.48;6.25;;;14.00;99.90;;;;;;4981961;28;20065;-87
2021/10/17 09:19:09;;;;;;;11.90;5.95;;;14.00;99.90;;;;;;4989182;28;20047;-85
2021/10/17 09:22:00;;;;;;;10.77;4.90;;;14.00;99.90;;;;;;5010244;28;20046;-85
2021/10/17 09:24:48;;;;;;;16.13;4.75;;;14.10;99.90;;;;;;4982227;28;20050;-86
2021/10/17 09:27:26;;;;;;;13.73;6.13;;;14.10;99.90;;;;;;5005550;28;20046;-86
2021/10/17 09:29:57;;;;;;;9.82;5.13;;;14.10;99.90;;;;;;4974259;28;20046;-83
2021/10/17 09:32:29;;;;;;;18.95;6.55;;;14.20;99.90;;;;;;4653002;28;10000367;-83
2021/10/17 09:35:08;;;;;;;14.43;5.30;;;14.20;99.90;;;;;;5000311;28;20061;-86
2021/10/17 09:38:08;;;;;;;11.90;4.07;;;14.20;99.90;;;;;;5000363;28;20050;-86
2021/10/17 09:40:53;;;;;;;29.35;7.25;;;14.20;99.90;;;;;;4997314;28;20042;-86
2021/10/17 09:43:38;;;;;;;;;;;14.20;99.90;;;;;;5002888;28;20039;-85
2021/10/17 09:46:56;;;;;;;31.52;6.15;;;14.30;99.90;;;;;;5004734;28;19921;-84
2021/10/17 09:49:31;;;;;;;22.70;9.02;;;14.30;99.90;;;;;;5011657;28;20379;-83
2021/10/17 09:52:25;;;;;;;12.75;4.32;;;14.30;99.90;;;;;;5022173;28;20046;-85
2021/10/17 09:55:12;;;;;;;13.80;4.90;;;14.40;99.90;;;;;;5000120;28;20050;-84
2021/10/17 09:57:44;;;;;;;7.10;3.78;;;14.40;99.90;;;;;;5019822;28;20058;-84
2021/10/17 10:00:15;;;;;;;10.45;3.97;;;14.50;99.90;;;;;;5008521;28;20034;-89
2021/10/17 10:02:52;;;;;;;12.05;4.55;;;14.80;99.90;;;;;;5019075;28;20054;-86
2021/10/17 10:05:28;;;;;;;;;;;14.60;99.90;;;;;;5024801;28;20407;-86
2021/10/17 10:08:03;;;;;;;7.45;3.85;;;14.70;99.90;;;;;;5005018;28;19928;-85
2021/10/17 10:10:34;;;;;;;22.00;5.60;;;14.80;99.90;;;;;;5014638;28;20049;-86
2021/10/17 10:13:12;;;;;;;14.98;4.25;;;14.80;99.90;;;;;;5020742;28;20052;-86
2021/10/17 10:15:51;;;;;;;18.02;5.10;;;14.90;99.90;;;;;;5004005;28;20038;-82
2021/10/17 10:18:30;;;;;;;15.23;5.32;;;14.90;99.90;;;;;;5005741;28;20031;-88
2021/10/17 10:21:02;;;;;;;11.85;3.95;;;15.00;99.90;;;;;;4986535;28;20057;-86
2021/10/17 10:23:34;;;;;;;9.68;3.78;;;15.10;99.90;;;;;;4998512;28;20054;-84
2021/10/17 10:26:05;;;;;;;10.30;3.80;;;15.10;99.90;;;;;;4988226;28;20053;-87
2021/10/17 10:28:44;;;;;;;7.80;3.33;;;15.20;99.90;;;;;;5022248;28;20085;-89
2021/10/17 10:31:52;;;;;;;18.77;5.03;;;15.20;99.90;;;;;;4979321;28;20064;-87
2021/10/17 10:34:28;;;;;;;29.05;5.63;;;15.30;99.90;;;;;;4996002;28;20088;-89
2021/10/17 10:36:56;;;;;;;9.32;3.58;;;15.30;99.90;;;;;;4994410;28;20053;-87
2021/10/17 10:39:34;;;;;;;20.83;5.57;;;15.30;99.90;;;;;;5008240;28;20054;-83
2021/10/17 10:42:17;;;;;;;27.10;6.07;;;15.30;99.90;;;;;;4991215;28;20678;-84
2021/10/17 10:44:54;;;;;;;12.77;4.45;;;15.30;99.90;;;;;;4999493;28;20059;-89
2021/10/17 10:47:27;;;;;;;45.20;6.72;;;15.30;99.90;;;;;;4992741;28;20055;-86
2021/10/17 10:49:57;;;;;;;33.03;6.28;;;15.30;99.90;;;;;;4973370;28;20065;-87
2021/10/17 10:52:31;;;;;;;42.60;7.90;;;15.30;99.90;;;;;;4989706;28;20043;-86
2021/10/17 10:55:07;;;;;;;28.63;5.22;;;15.40;99.90;;;;;;4997458;28;20054;-86
2021/10/17 10:57:48;;;;;;;13.82;3.60;;;15.40;99.90;;;;;;4993940;28;20054;-91
2021/10/17 11:00:30;;;;;;;12.85;5.20;;;15.50;99.90;;;;;;4991203;28;20053;-89
2021/10/17 11:03:13;;;;;;;9.45;3.72;;;15.50;99.90;;;;;;4987773;28;20050;-87
2021/10/17 11:06:07;;;;;;;15.85;3.85;;;15.50;99.90;;;;;;4982193;28;20053;-86
2021/10/17 11:09:32;;;;;;;28.73;6.18;;;15.50;99.90;;;;;;4974409;28;20046;-86
2021/10/17 11:12:00;;;;;;;10.05;3.88;;;15.60;99.90;;;;;;4623408;28;10001795;-87
2021/10/17 11:14:30;;;;;;;12.75;3.58;;;15.60;99.90;;;;;;5002341;28;20050;-86
2021/10/17 11:17:14;;;;;;;17.02;4.97;;;15.60;99.90;;;;;;4985032;28;20046;-87
2021/10/17 11:19:45;;;;;;;11.15;3.83;;;15.70;99.90;;;;;;4992086;28;20067;-86
2021/10/17 11:22:34;;;;;;;18.17;4.18;;;15.60;99.90;;;;;;4984241;28;20061;-91
2021/10/17 11:25:03;;;;;;;14.77;4.55;;;15.60;99.90;;;;;;4986758;28;20054;-88
2021/10/17 11:27:36;;;;;;;7.50;2.63;;;15.60;99.90;;;;;;4984451;28;20057;-85
2021/10/17 11:30:29;;;;;;;14.48;3.83;;;15.60;99.90;;;;;;4993442;28;20061;-85
2021/10/17 11:32:59;;;;;;;4.95;2.65;;;15.60;99.90;;;;;;4984320;28;20051;-87
2021/10/17 11:35:36;;;;;;;16.85;5.25;;;15.60;99.90;;;;;;5007504;28;20485;-84
2021/10/17 11:38:15;;;;;;;16.20;5.45;;;15.60;99.90;;;;;;4966962;28;20054;-84
2021/10/17 11:40:45;;;;;;;13.23;4.35;;;15.60;99.90;;;;;;4969839;28;20061;-88
2021/10/17 11:43:13;;;;;;;17.48;3.13;;;15.70;99.90;;;;;;4984991;28;20486;-85
2021/10/17 11:45:47;;;;;;;9.05;3.28;;;15.80;99.90;;;;;;4997019;28;20047;-89
2021/10/17 11:48:17;;;;;;;10.60;4.25;;;15.80;99.90;;;;;;5008472;28;20046;-84
2021/10/17 11:50:49;;;;;;;6.28;2.55;;;15.90;99.90;;;;;;4997897;28;20062;-83
2021/10/17 11:53:18;;;;;;;12.60;4.43;;;15.90;99.90;;;;;;4988069;28;20049;-83
2021/10/17 11:55:54;;;;;;;6.90;2.47;;;15.90;99.90;;;;;;4991391;28;20050;-85
2021/10/17 11:58:26;;;;;;;7.00;3.15;;;16.00;99.90;;;;;;4990444;28;20053;-83
2021/10/17 12:01:06;;;;;;;10.82;4.30;;;16.00;99.90;;;;;;5004258;28;20034;-87
2021/10/17 12:03:35;;;;;;;8.02;2.25;;;16.00;99.90;;;;;;4987909;28;20462;-83
2021/10/17 12:06:04;;;;;;;6.53;2.10;;;16.00;99.90;;;;;;4987261;28;20057;-86
2021/10/17 12:08:34;;;;;;;6.22;2.22;;;16.00;99.90;;;;;;4998748;28;20050;-87
2021/10/17 12:11:06;;;;;;;23.10;3.70;;;16.10;99.90;;;;;;4987736;28;20042;-86
2021/10/17 12:14:08;;;;;;;5.47;2.60;;;15.50;99.90;;;;;;4996175;28;20054;-88
2021/10/17 12:16:44;;;;;;;16.77;3.78;;;16.20;99.90;;;;;;4990311;28;20062;-85
2021/10/17 12:19:13;;;;;;;5.45;2.67;;;16.20;99.90;;;;;;4980336;28;20059;-86
2021/10/17 12:21:43;;;;;;;31.95;3.58;;;16.30;99.90;;;;;;4988511;28;20050;-84
2021/10/17 12:24:17;;;;;;;14.63;2.72;;;16.40;99.90;;;;;;4984827;28;20054;-87
2021/10/17 12:27:34;;;;;;;13.63;2.63;;;16.50;99.90;;;;;;4987976;28;20426;-86
2021/10/17 12:30:19;;;;;;;6.18;2.92;;;16.60;99.90;;;;;;4972379;28;20537;-84
2021/10/17 12:32:55;;;;;;;9.50;2.13;;;16.70;99.90;;;;;;4989383;28;20442;-86
2021/10/17 12:35:32;;;;;;;11.85;2.92;;;16.70;99.90;;;;;;4998650;28;20043;-85
2021/10/17 12:38:14;;;;;;;6.90;2.53;;;16.60;99.90;;;;;;4976399;28;20046;-87
2021/10/17 12:40:53;;;;;;;7.78;2.53;;;16.70;99.90;;;;;;4999803;28;20038;-86
2021/10/17 12:43:37;;;;;;;8.23;2.33;;;16.80;99.90;;;;;;4991009;28;20057;-88
2021/10/17 12:46:11;;;;;;;12.82;3.33;;;16.80;99.90;;;;;;5011300;28;20065;-84
2021/10/17 12:48:54;;;;;;;7.25;2.08;;;16.90;99.90;;;;;;5004925;28;20053;-86
2021/10/17 12:51:33;;;;;;;6.60;2.13;;;17.00;99.90;;;;;;4970919;28;20110;-85
2021/10/17 12:54:13;;;;;;;11.13;3.40;;;17.10;99.90;;;;;;4981485;28;20050;-85
2021/10/17 12:56:51;;;;;;;11.60;2.80;;;17.10;99.90;;;;;;4985083;28;20062;-83
2021/10/17 12:59:27;;;;;;;19.70;3.10;;;17.20;99.90;;;;;;5014203;28;20481;-86
2021/10/17 13:02:14;;;;;;;11.55;2.90;;;17.30;99.90;;;;;;4990290;28;20050;-86
2021/10/17 13:04:48;;;;;;;14.52;3.05;;;17.30;99.90;;;;;;5008611;28;20050;-85
2021/10/17 13:07:34;;;;;;;26.05;3.85;;;17.40;99.90;;;;;;4972105;28;20525;-86
2021/10/17 13:10:07;;;;;;;9.50;2.15;;;17.40;99.90;;;;;;4987917;28;20045;-83
2021/10/17 13:12:45;;;;;;;9.98;2.90;;;17.40;99.90;;;;;;5001730;28;20070;-84
2021/10/17 13:15:27;;;;;;;23.98;3.03;;;17.40;99.90;;;;;;4990753;28;20046;-86
2021/10/17 13:18:03;;;;;;;9.32;2.45;;;17.50;99.90;;;;;;5013580;28;20047;-82
2021/10/17 13:20:40;;;;;;;5.90;2.22;;;17.50;99.90;;;;;;4992091;28;20053;-83
2021/10/17 13:23:20;;;;;;;6.72;2.42;;;17.40;99.90;;;;;;4986406;28;20081;-85
2021/10/17 13:25:52;;;;;;;15.40;2.80;;;17.40;99.90;;;;;;4983738;28;20058;-87
2021/10/17 13:28:20;;;;;;;12.50;2.78;;;17.40;99.90;;;;;;4988799;28;20453;-85
2021/10/17 13:30:49;;;;;;;5.90;2.20;;;17.40;99.90;;;;;;4991221;28;20253;-86
2021/10/17 13:33:19;;;;;;;12.02;4.90;;;16.90;99.90;;;;;;4996388;28;20046;-85
2021/10/17 13:35:55;;;;;;;9.70;2.88;;;17.50;99.90;;;;;;4991764;28;20073;-84
2021/10/17 13:38:24;;;;;;;15.18;3.50;;;17.40;99.90;;;;;;4974137;28;20047;-86